sensor_id;sensor_type;location;lat;lon;timestamp;pressure;altitude;pressure_sealevel;temperature;humidity
54592;BME280;40488;48.558;18.150;2022-12-10T00:01:50;98045.59;;;5.21;97.40
54592;BME280;40488;48.558;18.150;2022-12-10T00:04:20;98048.13;;;5.22;97.50
54592;BME280;40488;48.558;18.150;2022-12-10T00:06:48;98038.03;;;5.16;97.19
54592;BME280;40488;48.558;18.150;2022-12-10T00:09:20;98044.78;;;5.20;97.19
54592;BME280;40488;48.558;18.150;2022-12-10T00:11:49;98047.28;;;5.22;97.39
54592;BME280;40488;48.558;18.150;2022-12-10T00:14:18;98049.81;;;5.19;97.08
54592;BME280;40488;48.558;18.150;2022-12-10T00:16:47;98052.34;;;5.19;96.97
54592;BME280;40488;48.558;18.150;2022-12-10T00:19:17;98051.50;;;5.21;97.24
54592;BME280;40488;48.558;18.150;2022-12-10T00:21:46;98048.97;;;5.21;97.28
54592;BME280;40488;48.558;18.150;2022-12-10T00:24:14;98010.31;;;5.04;97.32
54592;BME280;40488;48.558;18.150;2022-12-10T00:26:43;98035.56;;;5.09;97.20
54592;BME280;40488;48.558;18.150;2022-12-10T00:29:13;98058.25;;;5.25;97.27
54592;BME280;40488;48.558;18.150;2022-12-10T00:31:42;98053.19;;;5.22;97.51
54592;BME280;40488;48.558;18.150;2022-12-10T00:34:11;98064.94;;;5.29;97.66
54592;BME280;40488;48.558;18.150;2022-12-10T00:36:43;98066.63;;;5.30;97.14
54592;BME280;40488;48.558;18.150;2022-12-10T00:39:15;98071.66;;;5.30;97.15
54592;BME280;40488;48.558;18.150;2022-12-10T00:41:44;98069.19;;;5.27;97.25
54592;BME280;40488;48.558;18.150;2022-12-10T00:44:14;98063.25;;;5.28;97.18
54592;BME280;40488;48.558;18.150;2022-12-10T00:46:43;98058.25;;;5.25;97.09
54592;BME280;40488;48.558;18.150;2022-12-10T00:49:12;98054.84;;;5.23;97.76
54592;BME280;40488;48.558;18.150;2022-12-10T00:51:42;98067.47;;;5.31;97.27
54592;BME280;40488;48.558;18.150;2022-12-10T00:54:11;98075.94;;;5.27;97.29
54592;BME280;40488;48.558;18.150;2022-12-10T00:56:41;98085.19;;;5.32;97.50
54592;BME280;40488;48.558;18.150;2022-12-10T00:59:10;98079.28;;;5.32;97.16
54592;BME280;40488;48.558;18.150;2022-12-10T01:01:41;98086.00;;;5.33;97.40
54592;BME280;40488;48.558;18.150;2022-12-10T01:04:12;98085.19;;;5.32;97.28
54592;BME280;40488;48.558;18.150;2022-12-10T01:06:45;98084.31;;;5.33;96.94
54592;BME280;40488;48.558;18.150;2022-12-10T01:09:16;98053.22;;;5.16;97.76
54592;BME280;40488;48.558;18.150;2022-12-10T01:11:47;98082.63;;;5.34;97.33
54592;BME280;40488;48.558;18.150;2022-12-10T01:14:18;98085.13;;;5.35;97.50
54592;BME280;40488;48.558;18.150;2022-12-10T01:16:48;98088.53;;;5.31;97.47
54592;BME280;40488;48.558;18.150;2022-12-10T01:19:17;98086.84;;;5.33;97.29
54592;BME280;40488;48.558;18.150;2022-12-10T01:21:49;98093.59;;;5.34;97.69
54592;BME280;40488;48.558;18.150;2022-12-10T01:24:18;98087.69;;;5.34;97.54
54592;BME280;40488;48.558;18.150;2022-12-10T01:26:47;98063.31;;;5.16;97.06
54592;BME280;40488;48.558;18.150;2022-12-10T01:29:16;98091.06;;;5.31;97.68
54592;BME280;40488;48.558;18.150;2022-12-10T01:31:45;98099.50;;;5.35;97.35
54592;BME280;40488;48.558;18.150;2022-12-10T01:34:15;98095.25;;;5.35;97.33
54592;BME280;40488;48.558;18.150;2022-12-10T01:36:45;98094.41;;;5.33;97.31
54592;BME280;40488;48.558;18.150;2022-12-10T01:39:19;98091.91;;;5.33;97.38
54592;BME280;40488;48.558;18.150;2022-12-10T01:41:50;98071.72;;;5.21;97.47
54592;BME280;40488;48.558;18.150;2022-12-10T01:47:09;98086.84;;;5.30;97.69
54592;BME280;40488;48.558;18.150;2022-12-10T01:49:41;98078.44;;;5.28;97.40
54592;BME280;40488;48.558;18.150;2022-12-10T01:52:13;98084.34;;;5.29;97.49
54592;BME280;40488;48.558;18.150;2022-12-10T01:54:45;98072.53;;;5.28;97.48
54592;BME280;40488;48.558;18.150;2022-12-10T01:57:16;98075.06;;;5.26;97.68
54592;BME280;40488;48.558;18.150;2022-12-10T01:59:49;98089.41;;;5.27;97.40
54592;BME280;40488;48.558;18.150;2022-12-10T02:02:26;98086.88;;;5.27;97.44
54592;BME280;40488;48.558;18.150;2022-12-10T02:05:05;98086.03;;;5.24;97.39
54592;BME280;40488;48.558;18.150;2022-12-10T02:07:49;98076.81;;;5.23;96.97
54592;BME280;40488;48.558;18.150;2022-12-10T02:10:30;98068.38;;;5.22;97.42
54592;BME280;40488;48.558;18.150;2022-12-10T02:13:07;98066.72;;;5.15;97.53
54592;BME280;40488;48.558;18.150;2022-12-10T02:15:42;98070.09;;;5.14;97.05
54592;BME280;40488;48.558;18.150;2022-12-10T02:18:17;98070.97;;;5.10;97.83
54592;BME280;40488;48.558;18.150;2022-12-10T02:20:51;98076.84;;;5.09;97.01
54592;BME280;40488;48.558;18.150;2022-12-10T02:23:22;98086.97;;;5.09;97.40
54592;BME280;40488;48.558;18.150;2022-12-10T02:26:00;98081.91;;;5.06;97.31
54592;BME280;40488;48.558;18.150;2022-12-10T02:28:36;98084.47;;;5.02;96.92
54592;BME280;40488;48.558;18.150;2022-12-10T02:31:11;98082.81;;;4.95;97.20
54592;BME280;40488;48.558;18.150;2022-12-10T02:33:48;98087.91;;;4.87;96.85
54592;BME280;40488;48.558;18.150;2022-12-10T02:36:19;98103.94;;;4.86;97.14
54592;BME280;40488;48.558;18.150;2022-12-10T02:38:51;98112.38;;;4.82;97.11
54592;BME280;40488;48.558;18.150;2022-12-10T02:41:25;98072.03;;;4.58;97.03
54592;BME280;40488;48.558;18.150;2022-12-10T02:44:00;98098.09;;;4.67;97.17
54592;BME280;40488;48.558;18.150;2022-12-10T02:46:32;98109.88;;;4.64;97.11
54592;BME280;40488;48.558;18.150;2022-12-10T02:49:06;98098.97;;;4.54;96.96
54592;BME280;40488;48.558;18.150;2022-12-10T02:51:36;98109.06;;;4.56;96.75
54592;BME280;40488;48.558;18.150;2022-12-10T02:54:31;98089.72;;;4.37;96.86
54592;BME280;40488;48.558;18.150;2022-12-10T02:57:00;98120.03;;;4.44;96.54
54592;BME280;40488;48.558;18.150;2022-12-10T02:59:36;98127.63;;;4.34;97.01
54592;BME280;40488;48.558;18.150;2022-12-10T03:02:12;98131.00;;;4.30;96.70
54592;BME280;40488;48.558;18.150;2022-12-10T03:04:46;98124.28;;;4.29;96.61
54592;BME280;40488;48.558;18.150;2022-12-10T03:07:22;98125.13;;;4.29;96.67
54592;BME280;40488;48.558;18.150;2022-12-10T03:09:55;98120.91;;;4.18;96.36
54592;BME280;40488;48.558;18.150;2022-12-10T03:12:28;98109.97;;;4.14;96.57
54592;BME280;40488;48.558;18.150;2022-12-10T03:14:59;98114.16;;;4.11;96.32
54592;BME280;40488;48.558;18.150;2022-12-10T03:17:31;98113.34;;;4.04;96.30
54592;BME280;40488;48.558;18.150;2022-12-10T03:20:00;98134.38;;;4.04;96.17
54592;BME280;40488;48.558;18.150;2022-12-10T03:22:32;98145.31;;;4.02;96.44
54592;BME280;40488;48.558;18.150;2022-12-10T03:25:02;98136.06;;;3.93;95.94
54592;BME280;40488;48.558;18.150;2022-12-10T03:27:32;98132.69;;;3.99;96.43
54592;BME280;40488;48.558;18.150;2022-12-10T03:30:01;98148.69;;;4.12;96.34
54592;BME280;40488;48.558;18.150;2022-12-10T03:32:32;98153.75;;;4.19;96.31
54592;BME280;40488;48.558;18.150;2022-12-10T03:35:01;98161.28;;;4.21;96.29
54592;BME280;40488;48.558;18.150;2022-12-10T03:37:30;98157.94;;;4.19;96.55
54592;BME280;40488;48.558;18.150;2022-12-10T03:39:59;98163.81;;;4.21;96.14
54592;BME280;40488;48.558;18.150;2022-12-10T03:42:28;98163.00;;;4.34;96.54
54592;BME280;40488;48.558;18.150;2022-12-10T03:44:57;98139.41;;;4.41;96.67
54592;BME280;40488;48.558;18.150;2022-12-10T03:47:25;98105.75;;;4.39;96.40
54592;BME280;40488;48.558;18.150;2022-12-10T03:49:55;98112.44;;;4.52;96.50
54592;BME280;40488;48.558;18.150;2022-12-10T03:52:24;98126.75;;;4.53;96.29
54592;BME280;40488;48.558;18.150;2022-12-10T03:54:53;98137.72;;;4.47;96.71
54592;BME280;40488;48.558;18.150;2022-12-10T03:57:22;98141.94;;;4.44;96.50
54592;BME280;40488;48.558;18.150;2022-12-10T03:59:50;98155.38;;;4.47;96.63
54592;BME280;40488;48.558;18.150;2022-12-10T04:02:19;98134.38;;;4.41;96.46
54592;BME280;40488;48.558;18.150;2022-12-10T04:04:49;98151.16;;;4.57;96.64
54592;BME280;40488;48.558;18.150;2022-12-10T04:07:19;98158.75;;;4.57;96.75
54592;BME280;40488;48.558;18.150;2022-12-10T04:09:48;98160.41;;;4.59;96.80
54592;BME280;40488;48.558;18.150;2022-12-10T04:12:17;98155.38;;;4.59;96.49
54592;BME280;40488;48.558;18.150;2022-12-10T04:14:46;98144.41;;;4.59;96.58
54592;BME280;40488;48.558;18.150;2022-12-10T04:17:25;98152.84;;;4.58;96.31
54592;BME280;40488;48.558;18.150;2022-12-10T04:19:54;98137.69;;;4.49;96.67
54592;BME280;40488;48.558;18.150;2022-12-10T04:22:24;98142.75;;;4.49;96.51
54592;BME280;40488;48.558;18.150;2022-12-10T04:25:04;98145.28;;;4.49;96.68
54592;BME280;40488;48.558;18.150;2022-12-10T04:27:41;98141.06;;;4.45;96.55
54592;BME280;40488;48.558;18.150;2022-12-10T04:30:11;98136.00;;;4.46;96.81
54592;BME280;40488;48.558;18.150;2022-12-10T04:32:40;98146.13;;;4.45;96.84
54592;BME280;40488;48.558;18.150;2022-12-10T04:35:09;98152.88;;;4.40;96.96
54592;BME280;40488;48.558;18.150;2022-12-10T04:37:39;98146.16;;;4.34;96.99
54592;BME280;40488;48.558;18.150;2022-12-10T04:40:09;98168.88;;;4.43;96.52
54592;BME280;40488;48.558;18.150;2022-12-10T04:42:38;98169.72;;;4.32;96.56
54592;BME280;40488;48.558;18.150;2022-12-10T04:45:07;98184.03;;;4.39;96.73
54592;BME280;40488;48.558;18.150;2022-12-10T04:47:36;98178.97;;;4.40;96.67
54592;BME280;40488;48.558;18.150;2022-12-10T04:50:05;98181.50;;;4.39;96.70
54592;BME280;40488;48.558;18.150;2022-12-10T04:52:35;98149.50;;;4.26;96.91
54592;BME280;40488;48.558;18.150;2022-12-10T04:55:06;98165.50;;;4.35;96.82
54592;BME280;40488;48.558;18.150;2022-12-10T04:57:35;98158.75;;;4.30;97.00
54592;BME280;40488;48.558;18.150;2022-12-10T05:00:04;98168.88;;;4.28;96.73
54592;BME280;40488;48.558;18.150;2022-12-10T05:02:34;98168.88;;;4.22;96.73
54592;BME280;40488;48.558;18.150;2022-12-10T05:05:03;98184.03;;;4.21;96.66
54592;BME280;40488;48.558;18.150;2022-12-10T05:07:32;98186.56;;;4.15;97.17
54592;BME280;40488;48.558;18.150;2022-12-10T05:10:01;98198.31;;;4.06;96.56
54592;BME280;40488;48.558;18.150;2022-12-10T05:12:32;98216.81;;;4.08;96.79
54592;BME280;40488;48.558;18.150;2022-12-10T05:15:00;98209.25;;;4.04;96.84
54592;BME280;40488;48.558;18.150;2022-12-10T05:17:29;98210.09;;;4.07;96.70
54592;BME280;40488;48.558;18.150;2022-12-10T05:19:58;98188.22;;;3.97;96.53
54592;BME280;40488;48.558;18.150;2022-12-10T05:22:26;98200.00;;;4.01;96.79
54592;BME280;40488;48.558;18.150;2022-12-10T05:25:05;98196.63;;;4.05;96.92
54592;BME280;40488;48.558;18.150;2022-12-10T05:27:36;98189.91;;;4.07;96.65
54592;BME280;40488;48.558;18.150;2022-12-10T05:30:06;98189.09;;;4.10;96.98
54592;BME280;40488;48.558;18.150;2022-12-10T05:32:36;98194.09;;;4.13;96.79
54592;BME280;40488;48.558;18.150;2022-12-10T05:35:06;98187.38;;;4.15;97.05
54592;BME280;40488;48.558;18.150;2022-12-10T05:37:34;98173.94;;;4.15;96.59
54592;BME280;40488;48.558;18.150;2022-12-10T05:40:04;98178.97;;;4.16;97.04
54592;BME280;40488;48.558;18.150;2022-12-10T05:42:34;98185.72;;;4.14;96.54
54592;BME280;40488;48.558;18.150;2022-12-10T05:45:05;98194.09;;;4.13;96.97
54592;BME280;40488;48.558;18.150;2022-12-10T05:47:34;98200.00;;;4.11;96.68
54592;BME280;40488;48.558;18.150;2022-12-10T05:50:03;98189.06;;;4.02;96.79
54592;BME280;40488;48.558;18.150;2022-12-10T05:52:33;98197.47;;;4.04;96.39
54592;BME280;40488;48.558;18.150;2022-12-10T05:55:01;98188.22;;;4.00;96.36
54592;BME280;40488;48.558;18.150;2022-12-10T05:57:30;98178.09;;;3.85;96.72
54592;BME280;40488;48.558;18.150;2022-12-10T05:59:59;98195.78;;;3.88;96.63
54592;BME280;40488;48.558;18.150;2022-12-10T06:02:40;98198.28;;;3.82;96.29
54592;BME280;40488;48.558;18.150;2022-12-10T06:05:09;98196.59;;;3.75;96.25
54592;BME280;40488;48.558;18.150;2022-12-10T06:07:37;98201.63;;;3.77;96.18
54592;BME280;40488;48.558;18.150;2022-12-10T06:10:07;98209.22;;;3.78;95.95
54592;BME280;40488;48.558;18.150;2022-12-10T06:12:36;98203.31;;;3.76;96.17
54592;BME280;40488;48.558;18.150;2022-12-10T06:15:06;98217.59;;;3.73;96.09
54592;BME280;40488;48.558;18.150;2022-12-10T06:17:35;98213.41;;;3.72;95.83
54592;BME280;40488;48.558;18.150;2022-12-10T06:20:06;98221.78;;;3.72;95.55
54592;BME280;40488;48.558;18.150;2022-12-10T06:22:36;98216.75;;;3.69;96.01
54592;BME280;40488;48.558;18.150;2022-12-10T06:25:05;98226.84;;;3.72;95.98
54592;BME280;40488;48.558;18.150;2022-12-10T06:27:34;98233.59;;;3.73;95.91
54592;BME280;40488;48.558;18.150;2022-12-10T06:30:03;98233.59;;;3.73;95.27
54592;BME280;40488;48.558;18.150;2022-12-10T06:32:32;98215.06;;;3.68;95.39
54592;BME280;40488;48.558;18.150;2022-12-10T06:35:01;98227.72;;;3.76;95.13
54592;BME280;40488;48.558;18.150;2022-12-10T06:37:31;98240.34;;;3.80;95.46
54592;BME280;40488;48.558;18.150;2022-12-10T06:40:00;98246.22;;;3.85;95.52
54592;BME280;40488;48.558;18.150;2022-12-10T06:42:28;98251.28;;;3.87;94.81
54592;BME280;40488;48.558;18.150;2022-12-10T06:44:57;98236.97;;;3.84;95.04
54592;BME280;40488;48.558;18.150;2022-12-10T06:47:25;98247.06;;;3.87;94.89
54592;BME280;40488;48.558;18.150;2022-12-10T06:49:54;98250.44;;;3.89;95.03
54592;BME280;40488;48.558;18.150;2022-12-10T06:52:23;98245.41;;;3.92;94.33
54592;BME280;40488;48.558;18.150;2022-12-10T06:54:53;98243.72;;;3.94;94.84
54592;BME280;40488;48.558;18.150;2022-12-10T06:57:22;98242.06;;;3.93;94.48
54592;BME280;40488;48.558;18.150;2022-12-10T06:59:51;98248.78;;;3.94;94.16
54592;BME280;40488;48.558;18.150;2022-12-10T07:02:20;98249.63;;;3.95;93.92
54592;BME280;40488;48.558;18.150;2022-12-10T07:04:49;98257.19;;;3.93;93.63
54592;BME280;40488;48.558;18.150;2022-12-10T07:07:18;98264.78;;;3.98;93.58
54592;BME280;40488;48.558;18.150;2022-12-10T07:09:46;98264.75;;;4.01;94.06
54592;BME280;40488;48.558;18.150;2022-12-10T07:12:16;98265.59;;;4.01;93.50
54592;BME280;40488;48.558;18.150;2022-12-10T07:14:45;98263.09;;;4.04;93.31
54592;BME280;40488;48.558;18.150;2022-12-10T07:17:13;98261.41;;;4.08;93.29
54592;BME280;40488;48.558;18.150;2022-12-10T07:19:42;98253.03;;;4.07;93.28
54592;BME280;40488;48.558;18.150;2022-12-10T07:22:11;98251.31;;;4.08;92.94
54592;BME280;40488;48.558;18.150;2022-12-10T07:24:40;98231.97;;;3.99;93.20
54592;BME280;40488;48.558;18.150;2022-12-10T07:27:09;98243.75;;;4.10;92.46
54592;BME280;40488;48.558;18.150;2022-12-10T07:29:39;98248.81;;;4.10;92.43
54592;BME280;40488;48.558;18.150;2022-12-10T07:32:07;98249.66;;;4.10;92.58
54592;BME280;40488;48.558;18.150;2022-12-10T07:34:36;98250.47;;;4.11;92.24
54592;BME280;40488;48.558;18.150;2022-12-10T07:37:05;98231.97;;;4.12;92.59
54592;BME280;40488;48.558;18.150;2022-12-10T07:39:34;98233.66;;;4.10;92.30
54592;BME280;40488;48.558;18.150;2022-12-10T07:42:02;98238.69;;;4.08;91.69
54592;BME280;40488;48.558;18.150;2022-12-10T07:44:32;98244.59;;;4.12;92.06
54592;BME280;40488;48.558;18.150;2022-12-10T07:47:02;98239.53;;;4.18;91.37
54592;BME280;40488;48.558;18.150;2022-12-10T07:49:31;98239.59;;;4.22;91.71
54592;BME280;40488;48.558;18.150;2022-12-10T07:52:00;98225.25;;;4.23;91.11
54592;BME280;40488;48.558;18.150;2022-12-10T07:54:28;98226.94;;;4.24;91.20
54592;BME280;40488;48.558;18.150;2022-12-10T07:56:57;98221.91;;;4.24;91.29
54592;BME280;40488;48.558;18.150;2022-12-10T07:59:25;98217.69;;;4.26;91.11
54592;BME280;40488;48.558;18.150;2022-12-10T08:01:54;98227.78;;;4.29;91.03
54592;BME280;40488;48.558;18.150;2022-12-10T08:04:27;98235.38;;;4.29;90.79
54592;BME280;40488;48.558;18.150;2022-12-10T08:06:56;98222.75;;;4.29;90.42
54592;BME280;40488;48.558;18.150;2022-12-10T08:09:25;98224.44;;;4.31;90.87
54592;BME280;40488;48.558;18.150;2022-12-10T08:11:53;98219.38;;;4.33;90.34
54592;BME280;40488;48.558;18.150;2022-12-10T08:14:22;98215.19;;;4.32;90.40
54592;BME280;40488;48.558;18.150;2022-12-10T08:16:51;98215.19;;;4.32;90.15
54592;BME280;40488;48.558;18.150;2022-12-10T08:19:20;98207.56;;;4.35;89.98
54592;BME280;40488;48.558;18.150;2022-12-10T08:21:57;98198.31;;;4.37;89.46
54592;BME280;40488;48.558;18.150;2022-12-10T08:24:26;98194.13;;;4.36;89.47
54592;BME280;40488;48.558;18.150;2022-12-10T08:26:55;98198.31;;;4.40;89.45
54592;BME280;40488;48.558;18.150;2022-12-10T08:29:24;98201.69;;;4.42;88.88
54592;BME280;40488;48.558;18.150;2022-12-10T08:31:55;98207.59;;;4.45;89.30
54592;BME280;40488;48.558;18.150;2022-12-10T08:34:24;98202.53;;;4.48;88.72
54592;BME280;40488;48.558;18.150;2022-12-10T08:36:53;98200.00;;;4.47;88.37
54592;BME280;40488;48.558;18.150;2022-12-10T08:39:23;98198.31;;;4.49;88.52
54592;BME280;40488;48.558;18.150;2022-12-10T08:41:52;98196.63;;;4.54;88.47
54592;BME280;40488;48.558;18.150;2022-12-10T08:44:21;98202.50;;;4.56;88.38
54592;BME280;40488;48.558;18.150;2022-12-10T08:46:50;98217.69;;;4.60;87.76
54592;BME280;40488;48.558;18.150;2022-12-10T08:49:18;98220.19;;;4.59;87.85
54592;BME280;40488;48.558;18.150;2022-12-10T08:51:47;98220.22;;;4.62;87.65
54592;BME280;40488;48.558;18.150;2022-12-10T08:54:16;98207.59;;;4.65;87.84
54592;BME280;40488;48.558;18.150;2022-12-10T08:56:46;98216.84;;;4.69;87.72
54592;BME280;40488;48.558;18.150;2022-12-10T08:59:14;98221.88;;;4.72;87.37
54592;BME280;40488;48.558;18.150;2022-12-10T09:01:43;98226.94;;;4.75;86.93
54592;BME280;40488;48.558;18.150;2022-12-10T09:04:12;98231.97;;;4.78;86.96
54592;BME280;40488;48.558;18.150;2022-12-10T09:06:42;98240.38;;;4.80;87.22
54592;BME280;40488;48.558;18.150;2022-12-10T09:09:11;98247.16;;;4.84;86.74
54592;BME280;40488;48.558;18.150;2022-12-10T09:11:39;98247.16;;;4.84;86.84
54592;BME280;40488;48.558;18.150;2022-12-10T09:14:09;98237.88;;;4.86;86.68
54592;BME280;40488;48.558;18.150;2022-12-10T09:16:38;98227.75;;;4.88;86.56
54592;BME280;40488;48.558;18.150;2022-12-10T09:19:07;98233.66;;;4.88;86.49
54592;BME280;40488;48.558;18.150;2022-12-10T09:21:39;98229.44;;;4.92;86.09
54592;BME280;40488;48.558;18.150;2022-12-10T09:24:09;98225.25;;;4.89;86.26
54592;BME280;40488;48.558;18.150;2022-12-10T09:26:37;98215.94;;;4.96;86.32
54592;BME280;40488;48.558;18.150;2022-12-10T09:29:06;98222.66;;;4.97;85.66
54592;BME280;40488;48.558;18.150;2022-12-10T09:31:36;98228.56;;;5.00;86.03
54592;BME280;40488;48.558;18.150;2022-12-10T09:34:06;98221.81;;;4.99;85.33
54592;BME280;40488;48.558;18.150;2022-12-10T09:36:35;98228.56;;;5.00;85.53
54592;BME280;40488;48.558;18.150;2022-12-10T09:39:04;98226.03;;;5.02;85.47
54592;BME280;40488;48.558;18.150;2022-12-10T09:41:50;98229.38;;;5.10;85.07
54592;BME280;40488;48.558;18.150;2022-12-10T09:44:33;98236.97;;;5.11;85.14
54592;BME280;40488;48.558;18.150;2022-12-10T09:47:09;98228.53;;;5.06;84.80
54592;BME280;40488;48.558;18.150;2022-12-10T09:49:50;98243.72;;;5.09;84.86
54592;BME280;40488;48.558;18.150;2022-12-10T09:52:24;98240.34;;;5.10;84.59
54592;BME280;40488;48.558;18.150;2022-12-10T09:54:58;98232.75;;;5.12;84.60
54592;BME280;40488;48.558;18.150;2022-12-10T09:57:32;98226.84;;;5.17;84.52
54592;BME280;40488;48.558;18.150;2022-12-10T10:00:05;98214.19;;;5.22;84.32
54592;BME280;40488;48.558;18.150;2022-12-10T10:02:39;98216.72;;;5.25;84.63
54592;BME280;40488;48.558;18.150;2022-12-10T10:05:11;98215.03;;;5.25;84.20
54592;BME280;40488;48.558;18.150;2022-12-10T10:07:50;98210.78;;;5.26;84.28
54592;BME280;40488;48.558;18.150;2022-12-10T10:10:26;98209.94;;;5.28;83.94
54592;BME280;40488;48.558;18.150;2022-12-10T10:13:00;98210.78;;;5.29;84.29
54592;BME280;40488;48.558;18.150;2022-12-10T10:15:32;98212.47;;;5.31;83.94
54592;BME280;40488;48.558;18.150;2022-12-10T10:18:09;98209.06;;;5.35;83.88
54592;BME280;40488;48.558;18.150;2022-12-10T10:20:40;98210.75;;;5.36;83.68
54592;BME280;40488;48.558;18.150;2022-12-10T10:23:12;98211.56;;;5.43;83.46
54592;BME280;40488;48.558;18.150;2022-12-10T10:25:42;98216.63;;;5.45;82.90
54592;BME280;40488;48.558;18.150;2022-12-10T10:28:16;98214.94;;;5.47;82.69
54592;BME280;40488;48.558;18.150;2022-12-10T10:30:46;98219.97;;;5.53;82.67
54592;BME280;40488;48.558;18.150;2022-12-10T10:33:17;98215.72;;;5.58;82.73
54592;BME280;40488;48.558;18.150;2022-12-10T10:35:48;98191.34;;;5.41;82.31
54592;BME280;40488;48.558;18.150;2022-12-10T10:38:20;98209.84;;;5.56;82.18
54592;BME280;40488;48.558;18.150;2022-12-10T10:40:52;98214.88;;;5.57;81.96
54592;BME280;40488;48.558;18.150;2022-12-10T10:43:24;98208.13;;;5.55;81.81
54592;BME280;40488;48.558;18.150;2022-12-10T10:45:54;98215.72;;;5.59;81.20
54592;BME280;40488;48.558;18.150;2022-12-10T10:48:27;98209.81;;;5.59;81.79
54592;BME280;40488;48.558;18.150;2022-12-10T10:51:05;98214.84;;;5.62;81.29
54592;BME280;40488;48.558;18.150;2022-12-10T10:53:41;98196.31;;;5.57;81.50
54592;BME280;40488;48.558;18.150;2022-12-10T10:56:13;98203.84;;;5.69;81.44
54592;BME280;40488;48.558;18.150;2022-12-10T10:58:49;98205.50;;;5.74;81.70
54592;BME280;40488;48.558;18.150;2022-12-10T11:01:18;98197.94;;;5.76;81.68
54592;BME280;40488;48.558;18.150;2022-12-10T11:03:51;98208.00;;;5.79;81.34
54592;BME280;40488;48.558;18.150;2022-12-10T11:06:22;98204.66;;;5.80;81.02
54592;BME280;40488;48.558;18.150;2022-12-10T11:08:54;98194.50;;;5.83;81.39
54592;BME280;40488;48.558;18.150;2022-12-10T11:11:32;98182.69;;;5.82;81.08
54592;BME280;40488;48.558;18.150;2022-12-10T11:14:13;98192.88;;;5.76;81.35
54592;BME280;40488;48.558;18.150;2022-12-10T11:16:43;98199.59;;;5.74;81.47
54592;BME280;40488;48.558;18.150;2022-12-10T11:19:20;98195.41;;;5.71;80.71
54592;BME280;40488;48.558;18.150;2022-12-10T11:21:49;98194.56;;;5.72;81.16
54592;BME280;40488;48.558;18.150;2022-12-10T11:24:19;98195.38;;;5.74;81.05
54592;BME280;40488;48.558;18.150;2022-12-10T11:27:00;98196.22;;;5.78;81.25
54592;BME280;40488;48.558;18.150;2022-12-10T11:29:40;98186.91;;;5.81;80.68
54592;BME280;40488;48.558;18.150;2022-12-10T11:32:30;98194.50;;;5.83;80.72
54592;BME280;40488;48.558;18.150;2022-12-10T11:35:10;98183.56;;;5.79;80.92
54592;BME280;40488;48.558;18.150;2022-12-10T11:37:46;98184.41;;;5.80;80.45
54592;BME280;40488;48.558;18.150;2022-12-10T11:40:31;98181.00;;;5.84;80.51
54592;BME280;40488;48.558;18.150;2022-12-10T11:43:23;98181.00;;;5.81;80.42
54592;BME280;40488;48.558;18.150;2022-12-10T11:46:05;98177.63;;;5.82;80.31
54592;BME280;40488;48.558;18.150;2022-12-10T11:48:55;98175.94;;;5.84;80.84
54592;BME280;40488;48.558;18.150;2022-12-10T11:51:35;98177.66;;;5.79;80.46
54592;BME280;40488;48.558;18.150;2022-12-10T11:54:28;98165.88;;;5.72;80.36
54592;BME280;40488;48.558;18.150;2022-12-10T11:57:05;98149.06;;;5.65;80.40
54592;BME280;40488;48.558;18.150;2022-12-10T11:59:43;98158.28;;;5.72;80.17
54592;BME280;40488;48.558;18.150;2022-12-10T12:02:56;98157.44;;;5.73;80.25
54592;BME280;40488;48.558;18.150;2022-12-10T12:05:43;98156.59;;;5.72;80.50
54592;BME280;40488;48.558;18.150;2022-12-10T12:08:21;98161.69;;;5.71;80.50
54592;BME280;40488;48.558;18.150;2022-12-10T12:11:13;98144.03;;;5.59;80.28
54592;BME280;40488;48.558;18.150;2022-12-10T12:13:54;98168.44;;;5.67;80.43
54592;BME280;40488;48.558;18.150;2022-12-10T12:16:29;98164.22;;;5.68;80.12
54592;BME280;40488;48.558;18.150;2022-12-10T12:19:02;98169.25;;;5.69;80.30
54592;BME280;40488;48.558;18.150;2022-12-10T12:21:31;98133.13;;;5.51;80.45
54592;BME280;40488;48.558;18.150;2022-12-10T12:24:06;98162.53;;;5.67;80.03
54592;BME280;40488;48.558;18.150;2022-12-10T12:26:42;98150.75;;;5.63;80.61
54592;BME280;40488;48.558;18.150;2022-12-10T12:29:17;98153.28;;;5.60;79.97
54592;BME280;40488;48.558;18.150;2022-12-10T12:31:54;98158.34;;;5.60;79.98
54592;BME280;40488;48.558;18.150;2022-12-10T12:34:32;98160.91;;;5.61;80.54
54592;BME280;40488;48.558;18.150;2022-12-10T12:37:07;98160.88;;;5.60;80.66
54592;BME280;40488;48.558;18.150;2022-12-10T12:39:45;98160.91;;;5.61;80.06
54592;BME280;40488;48.558;18.150;2022-12-10T12:42:21;98150.75;;;5.60;80.54
54592;BME280;40488;48.558;18.150;2022-12-10T12:44:59;98148.22;;;5.60;80.04
54592;BME280;40488;48.558;18.150;2022-12-10T12:47:38;98148.25;;;5.57;80.28
54592;BME280;40488;48.558;18.150;2022-12-10T12:50:24;98158.38;;;5.57;80.14
54592;BME280;40488;48.558;18.150;2022-12-10T12:52:56;98152.47;;;5.55;80.12
54592;BME280;40488;48.558;18.150;2022-12-10T12:55:32;98155.88;;;5.54;80.36
54592;BME280;40488;48.558;18.150;2022-12-10T12:58:16;98149.94;;;5.55;79.92
54592;BME280;40488;48.558;18.150;2022-12-10T13:00:51;98150.00;;;5.52;80.08
54592;BME280;40488;48.558;18.150;2022-12-10T13:03:32;98147.41;;;5.55;80.62
54592;BME280;40488;48.558;18.150;2022-12-10T13:06:15;98139.84;;;5.50;80.37
54592;BME280;40488;48.558;18.150;2022-12-10T13:08:48;98136.50;;;5.48;79.69
54592;BME280;40488;48.558;18.150;2022-12-10T13:11:31;98146.59;;;5.50;79.70
54592;BME280;40488;48.558;18.150;2022-12-10T13:14:15;98142.41;;;5.49;79.43
54592;BME280;40488;48.558;18.150;2022-12-10T13:17:00;98141.56;;;5.48;79.76
54592;BME280;40488;48.558;18.150;2022-12-10T13:19:31;98141.56;;;5.48;79.58
54592;BME280;40488;48.558;18.150;2022-12-10T13:22:06;98145.78;;;5.48;79.81
54592;BME280;40488;48.558;18.150;2022-12-10T13:27:33;98145.00;;;5.39;79.46
54592;BME280;40488;48.558;18.150;2022-12-10T13:30:28;98145.81;;;5.38;79.45
54592;BME280;40488;48.558;18.150;2022-12-10T13:33:16;98150.91;;;5.37;79.40